sensor_id;sensor_type;location;lat;lon;timestamp;pressure;altitude;pressure_sealevel;temperature;humidity
80678;BME280;70042;52.494;5.502;2023-07-31T00:00:11;100995.41;;;22.62;60.56
80678;BME280;70042;52.494;5.502;2023-07-31T00:02:38;100993.66;;;22.61;60.68
80678;BME280;70042;52.494;5.502;2023-07-31T00:05:04;100990.94;;;22.63;60.66
80678;BME280;70042;52.494;5.502;2023-07-31T00:07:29;100993.66;;;22.61;60.66
80678;BME280;70042;52.494;5.502;2023-07-31T00:09:55;100983.88;;;22.62;60.59
80678;BME280;70042;52.494;5.502;2023-07-31T00:12:22;100975.94;;;22.60;60.50
80678;BME280;70042;52.494;5.502;2023-07-31T00:14:47;100971.50;;;22.61;60.68
80678;BME280;70042;52.494;5.502;2023-07-31T00:17:13;100976.81;;;22.61;60.61
80678;BME280;70042;52.494;5.502;2023-07-31T00:19:38;100968.91;;;22.59;61.01
80678;BME280;70042;52.494;5.502;2023-07-31T00:22:04;100975.16;;;22.58;60.83
80678;BME280;70042;52.494;5.502;2023-07-31T00:24:30;100967.16;;;22.58;60.62
80678;BME280;70042;52.494;5.502;2023-07-31T00:26:55;100967.16;;;22.58;60.74
80678;BME280;70042;52.494;5.502;2023-07-31T00:29:20;100968.09;;;22.57;60.79
80678;BME280;70042;52.494;5.502;2023-07-31T00:31:45;100962.63;;;22.60;60.59
80678;BME280;70042;52.494;5.502;2023-07-31T00:34:11;100955.59;;;22.59;60.54
80678;BME280;70042;52.494;5.502;2023-07-31T00:36:36;100956.50;;;22.58;60.70
80678;BME280;70042;52.494;5.502;2023-07-31T00:39:02;100945.88;;;22.58;60.68
80678;BME280;70042;52.494;5.502;2023-07-31T00:41:27;100947.66;;;22.58;60.55
80678;BME280;70042;52.494;5.502;2023-07-31T00:43:52;100949.44;;;22.57;60.62
80678;BME280;70042;52.494;5.502;2023-07-31T00:46:18;100953.06;;;22.56;60.89
80678;BME280;70042;52.494;5.502;2023-07-31T00:48:44;100956.66;;;22.55;60.97
80678;BME280;70042;52.494;5.502;2023-07-31T00:51:10;100951.31;;;22.55;60.89
80678;BME280;70042;52.494;5.502;2023-07-31T00:53:35;100951.31;;;22.55;60.81
80678;BME280;70042;52.494;5.502;2023-07-31T00:56:01;100954.03;;;22.54;60.98
80678;BME280;70042;52.494;5.502;2023-07-31T00:58:27;100947.88;;;22.53;60.88
80678;BME280;70042;52.494;5.502;2023-07-31T01:00:52;100950.53;;;22.53;60.80
80678;BME280;70042;52.494;5.502;2023-07-31T01:03:18;100947.88;;;22.53;60.92
80678;BME280;70042;52.494;5.502;2023-07-31T01:08:54;100940.81;;;22.52;61.01
80678;BME280;70042;52.494;5.502;2023-07-31T01:11:30;100941.69;;;22.53;60.71
80678;BME280;70042;52.494;5.502;2023-07-31T01:13:57;100942.59;;;22.52;61.26
80678;BME280;70042;52.494;5.502;2023-07-31T01:16:22;100947.06;;;22.51;60.66
80678;BME280;70042;52.494;5.502;2023-07-31T01:18:48;100934.75;;;22.49;60.58
80678;BME280;70042;52.494;5.502;2023-07-31T01:21:26;100927.53;;;22.51;60.62
80678;BME280;70042;52.494;5.502;2023-07-31T01:27:27;100940.94;;;22.49;60.63
80678;BME280;70042;52.494;5.502;2023-07-31T01:30:11;100935.63;;;22.49;61.02
80678;BME280;70042;52.494;5.502;2023-07-31T01:32:42;100920.56;;;22.48;60.88
80678;BME280;70042;52.494;5.502;2023-07-31T01:35:09;100922.22;;;22.51;60.61
80678;BME280;70042;52.494;5.502;2023-07-31T01:37:35;100919.63;;;22.49;60.98
80678;BME280;70042;52.494;5.502;2023-07-31T01:40:01;100930.28;;;22.49;60.98
80678;BME280;70042;52.494;5.502;2023-07-31T01:42:26;100921.44;;;22.49;60.79
80678;BME280;70042;52.494;5.502;2023-07-31T01:44:52;100921.38;;;22.50;60.96
80678;BME280;70042;52.494;5.502;2023-07-31T01:47:17;100924.09;;;22.49;61.25
80678;BME280;70042;52.494;5.502;2023-07-31T01:49:42;100915.22;;;22.48;60.74
80678;BME280;70042;52.494;5.502;2023-07-31T01:52:08;100910.84;;;22.47;60.93
80678;BME280;70042;52.494;5.502;2023-07-31T01:54:33;100905.59;;;22.46;60.84
80678;BME280;70042;52.494;5.502;2023-07-31T01:56:59;100903.94;;;22.43;61.05
80678;BME280;70042;52.494;5.502;2023-07-31T01:59:24;100902.06;;;22.45;60.94
80678;BME280;70042;52.494;5.502;2023-07-31T02:01:50;100907.38;;;22.45;60.91
80678;BME280;70042;52.494;5.502;2023-07-31T02:04:15;100902.94;;;22.46;60.80
80678;BME280;70042;52.494;5.502;2023-07-31T02:06:41;100891.41;;;22.45;60.90
80678;BME280;70042;52.494;5.502;2023-07-31T02:09:06;100893.19;;;22.45;60.81
80678;BME280;70042;52.494;5.502;2023-07-31T02:11:31;100887.88;;;22.45;61.08
80678;BME280;70042;52.494;5.502;2023-07-31T02:13:57;100885.22;;;22.45;61.01
80678;BME280;70042;52.494;5.502;2023-07-31T02:16:22;100891.41;;;22.45;61.22
80678;BME280;70042;52.494;5.502;2023-07-31T02:18:48;100869.31;;;22.43;61.04
80678;BME280;70042;52.494;5.502;2023-07-31T02:23:38;100871.97;;;22.43;61.11
80678;BME280;70042;52.494;5.502;2023-07-31T02:26:04;100866.66;;;22.43;60.83
80678;BME280;70042;52.494;5.502;2023-07-31T02:28:29;100868.38;;;22.44;61.04
80678;BME280;70042;52.494;5.502;2023-07-31T02:30:55;100866.66;;;22.43;61.05
80678;BME280;70042;52.494;5.502;2023-07-31T02:33:20;100873.69;;;22.44;61.01
80678;BME280;70042;52.494;5.502;2023-07-31T02:38:11;100859.69;;;22.41;61.32
80678;BME280;70042;52.494;5.502;2023-07-31T02:40:36;100860.59;;;22.40;61.08
80678;BME280;70042;52.494;5.502;2023-07-31T02:43:02;100859.72;;;22.39;61.40
80678;BME280;70042;52.494;5.502;2023-07-31T02:45:27;100858.88;;;22.39;61.35
80678;BME280;70042;52.494;5.502;2023-07-31T02:47:53;100854.50;;;22.38;61.32
80678;BME280;70042;52.494;5.502;2023-07-31T02:50:18;100853.63;;;22.37;61.11
80678;BME280;70042;52.494;5.502;2023-07-31T02:52:43;100856.28;;;22.37;61.21
80678;BME280;70042;52.494;5.502;2023-07-31T02:55:09;100849.22;;;22.36;61.34
80678;BME280;70042;52.494;5.502;2023-07-31T02:57:34;100846.50;;;22.38;61.25
80678;BME280;70042;52.494;5.502;2023-07-31T02:59:59;100847.34;;;22.38;61.12
80678;BME280;70042;52.494;5.502;2023-07-31T03:02:25;100852.75;;;22.37;61.09
80678;BME280;70042;52.494;5.502;2023-07-31T03:04:50;100845.63;;;22.37;61.14
80678;BME280;70042;52.494;5.502;2023-07-31T03:07:16;100846.56;;;22.36;61.30
80678;BME280;70042;52.494;5.502;2023-07-31T03:09:41;100845.63;;;22.37;61.34
80678;BME280;70042;52.494;5.502;2023-07-31T03:12:07;100861.59;;;22.37;61.51
80678;BME280;70042;52.494;5.502;2023-07-31T03:14:33;100859.88;;;22.36;61.11
80678;BME280;70042;52.494;5.502;2023-07-31T03:16:59;100855.47;;;22.35;61.35
80678;BME280;70042;52.494;5.502;2023-07-31T03:19:24;100857.25;;;22.34;61.29
80678;BME280;70042;52.494;5.502;2023-07-31T03:21:50;100859.91;;;22.34;61.42
80678;BME280;70042;52.494;5.502;2023-07-31T03:24:15;100856.41;;;22.34;61.25
80678;BME280;70042;52.494;5.502;2023-07-31T03:26:41;100860.00;;;22.33;61.27
80678;BME280;70042;52.494;5.502;2023-07-31T03:29:07;100854.69;;;22.33;61.49
80678;BME280;70042;52.494;5.502;2023-07-31T03:31:33;100865.31;;;22.33;61.17
80678;BME280;70042;52.494;5.502;2023-07-31T03:33:58;100860.00;;;22.33;61.36
80678;BME280;70042;52.494;5.502;2023-07-31T03:36:23;100856.41;;;22.34;61.45
80678;BME280;70042;52.494;5.502;2023-07-31T03:38:51;100854.69;;;22.33;61.22
80678;BME280;70042;52.494;5.502;2023-07-31T03:41:16;100851.09;;;22.34;61.44
80678;BME280;70042;52.494;5.502;2023-07-31T03:43:41;100845.78;;;22.34;61.06
80678;BME280;70042;52.494;5.502;2023-07-31T03:46:07;100852.81;;;22.35;61.45
80678;BME280;70042;52.494;5.502;2023-07-31T03:48:32;100844.91;;;22.33;61.10
80678;BME280;70042;52.494;5.502;2023-07-31T03:50:58;100851.09;;;22.34;61.30
80678;BME280;70042;52.494;5.502;2023-07-31T03:53:23;100836.91;;;22.33;61.13
80678;BME280;70042;52.494;5.502;2023-07-31T03:55:48;100828.06;;;22.33;61.33
80678;BME280;70042;52.494;5.502;2023-07-31T03:58:14;100834.25;;;22.33;61.16
80678;BME280;70042;52.494;5.502;2023-07-31T04:00:40;100836.97;;;22.32;61.34
80678;BME280;70042;52.494;5.502;2023-07-31T04:03:05;100832.50;;;22.32;61.47
80678;BME280;70042;52.494;5.502;2023-07-31T04:05:32;100824.63;;;22.31;61.36
80678;BME280;70042;52.494;5.502;2023-07-31T04:07:57;100829.94;;;22.31;61.51
80678;BME280;70042;52.494;5.502;2023-07-31T04:10:23;100827.41;;;22.28;61.51
80678;BME280;70042;52.494;5.502;2023-07-31T04:12:48;100819.44;;;22.28;61.60
80678;BME280;70042;52.494;5.502;2023-07-31T04:15:14;100835.41;;;22.28;61.40
80678;BME280;70042;52.494;5.502;2023-07-31T04:17:39;100813.16;;;22.29;61.70
80678;BME280;70042;52.494;5.502;2023-07-31T04:20:05;100813.25;;;22.27;61.51
80678;BME280;70042;52.494;5.502;2023-07-31T04:22:31;100812.38;;;22.27;61.41
80678;BME280;70042;52.494;5.502;2023-07-31T04:24:56;100806.13;;;22.28;61.42
80678;BME280;70042;52.494;5.502;2023-07-31T04:27:22;100800.78;;;22.28;61.47
80678;BME280;70042;52.494;5.502;2023-07-31T04:29:47;100795.47;;;22.28;61.65
80678;BME280;70042;52.494;5.502;2023-07-31T04:32:13;100803.47;;;22.28;61.67
80678;BME280;70042;52.494;5.502;2023-07-31T04:34:40;100794.53;;;22.29;61.54
80678;BME280;70042;52.494;5.502;2023-07-31T04:37:06;100799.84;;;22.29;61.26
80678;BME280;70042;52.494;5.502;2023-07-31T04:39:31;100806.91;;;22.30;61.39
80678;BME280;70042;52.494;5.502;2023-07-31T04:41:57;100806.97;;;22.28;61.63
80678;BME280;70042;52.494;5.502;2023-07-31T04:44:22;100801.72;;;22.27;61.26
80678;BME280;70042;52.494;5.502;2023-07-31T04:46:47;100800.94;;;22.25;61.40
80678;BME280;70042;52.494;5.502;2023-07-31T04:49:13;100794.66;;;22.26;61.66
80678;BME280;70042;52.494;5.502;2023-07-31T04:51:38;100792.94;;;22.25;61.69
80678;BME280;70042;52.494;5.502;2023-07-31T04:54:03;100791.22;;;22.24;61.60
80678;BME280;70042;52.494;5.502;2023-07-31T04:56:29;100790.34;;;22.23;61.66
80678;BME280;70042;52.494;5.502;2023-07-31T04:58:54;100789.47;;;22.23;61.51
80678;BME280;70042;52.494;5.502;2023-07-31T05:01:20;100784.16;;;22.23;61.59
80678;BME280;70042;52.494;5.502;2023-07-31T05:03:45;100779.69;;;22.23;61.61
80678;BME280;70042;52.494;5.502;2023-07-31T05:06:10;100785.88;;;22.24;61.67
80678;BME280;70042;52.494;5.502;2023-07-31T05:08:37;100777.91;;;22.24;61.61
80678;BME280;70042;52.494;5.502;2023-07-31T05:11:02;100776.97;;;22.25;61.81
80678;BME280;70042;52.494;5.502;2023-07-31T05:13:28;100774.31;;;22.25;61.55
80678;BME280;70042;52.494;5.502;2023-07-31T05:15:53;100776.97;;;22.25;61.50
80678;BME280;70042;52.494;5.502;2023-07-31T05:18:19;100776.91;;;22.26;61.79
80678;BME280;70042;52.494;5.502;2023-07-31T05:20:44;100778.69;;;22.26;61.73
80678;BME280;70042;52.494;5.502;2023-07-31T05:23:10;100773.38;;;22.26;61.74
80678;BME280;70042;52.494;5.502;2023-07-31T05:25:35;100769.78;;;22.27;61.93
80678;BME280;70042;52.494;5.502;2023-07-31T05:28:00;100761.78;;;22.27;61.75
80678;BME280;70042;52.494;5.502;2023-07-31T05:30:26;100776.03;;;22.26;61.84
80678;BME280;70042;52.494;5.502;2023-07-31T05:32:51;100760.00;;;22.27;61.69
80678;BME280;70042;52.494;5.502;2023-07-31T05:35:17;100758.34;;;22.25;61.71
80678;BME280;70042;52.494;5.502;2023-07-31T05:37:42;100751.19;;;22.25;61.92
80678;BME280;70042;52.494;5.502;2023-07-31T05:40:08;100752.16;;;22.24;61.71
80678;BME280;70042;52.494;5.502;2023-07-31T05:42:33;100751.28;;;22.24;61.93
80678;BME280;70042;52.494;5.502;2023-07-31T05:44:59;100752.22;;;22.23;61.82
80678;BME280;70042;52.494;5.502;2023-07-31T05:47:25;100749.63;;;22.21;62.12
80678;BME280;70042;52.494;5.502;2023-07-31T05:49:50;100745.16;;;22.22;61.90
80678;BME280;70042;52.494;5.502;2023-07-31T05:52:18;100740.78;;;22.21;61.97
80678;BME280;70042;52.494;5.502;2023-07-31T05:54:43;100739.81;;;22.22;61.84
80678;BME280;70042;52.494;5.502;2023-07-31T05:57:09;100735.47;;;22.21;62.03
80678;BME280;70042;52.494;5.502;2023-07-31T05:59:37;100729.19;;;22.22;61.88
80678;BME280;70042;52.494;5.502;2023-07-31T06:02:03;100731.84;;;22.22;61.92
80678;BME280;70042;52.494;5.502;2023-07-31T06:04:29;100729.19;;;22.22;62.01
80678;BME280;70042;52.494;5.502;2023-07-31T06:06:54;100725.59;;;22.23;61.92
80678;BME280;70042;52.494;5.502;2023-07-31T06:09:19;100730.91;;;22.23;61.86
80678;BME280;70042;52.494;5.502;2023-07-31T06:11:48;100730.91;;;22.23;62.03
80678;BME280;70042;52.494;5.502;2023-07-31T06:14:13;100720.28;;;22.23;62.23
80678;BME280;70042;52.494;5.502;2023-07-31T06:16:39;100723.03;;;22.21;61.88
80678;BME280;70042;52.494;5.502;2023-07-31T06:19:04;100722.16;;;22.21;62.06
80678;BME280;70042;52.494;5.502;2023-07-31T06:21:29;100723.84;;;22.22;62.09
80678;BME280;70042;52.494;5.502;2023-07-31T06:23:56;100720.28;;;22.23;61.88
80678;BME280;70042;52.494;5.502;2023-07-31T06:26:21;100720.22;;;22.24;62.00
80678;BME280;70042;52.494;5.502;2023-07-31T06:28:47;100719.25;;;22.25;62.12
80678;BME280;70042;52.494;5.502;2023-07-31T06:31:12;100711.38;;;22.24;62.12
80678;BME280;70042;52.494;5.502;2023-07-31T06:33:38;100706.91;;;22.24;61.78
80678;BME280;70042;52.494;5.502;2023-07-31T06:36:03;100709.56;;;22.24;61.96
80678;BME280;70042;52.494;5.502;2023-07-31T06:38:29;100698.84;;;22.26;62.05
80678;BME280;70042;52.494;5.502;2023-07-31T06:40:54;100699.78;;;22.25;62.16
80678;BME280;70042;52.494;5.502;2023-07-31T06:43:19;100685.63;;;22.24;62.07
80678;BME280;70042;52.494;5.502;2023-07-31T06:45:45;100690.06;;;22.24;61.98
80678;BME280;70042;52.494;5.502;2023-07-31T06:48:11;100690.06;;;22.24;61.89
80678;BME280;70042;52.494;5.502;2023-07-31T06:50:37;100682.09;;;22.24;62.09
80678;BME280;70042;52.494;5.502;2023-07-31T06:53:02;100684.75;;;22.24;62.05
80678;BME280;70042;52.494;5.502;2023-07-31T06:55:28;100674.09;;;22.24;62.07
80678;BME280;70042;52.494;5.502;2023-07-31T06:57:54;100678.56;;;22.23;62.17
80678;BME280;70042;52.494;5.502;2023-07-31T07:00:22;100674.16;;;22.22;62.06
80678;BME280;70042;52.494;5.502;2023-07-31T07:02:48;100680.34;;;22.23;62.30
80678;BME280;70042;52.494;5.502;2023-07-31T07:05:14;100682.13;;;22.22;62.16
80678;BME280;70042;52.494;5.502;2023-07-31T07:07:41;100675.94;;;22.22;62.11
80678;BME280;70042;52.494;5.502;2023-07-31T07:10:08;100676.91;;;22.21;62.24
80678;BME280;70042;52.494;5.502;2023-07-31T07:12:34;100675.13;;;22.21;62.51
80678;BME280;70042;52.494;5.502;2023-07-31T07:15:00;100672.38;;;22.23;62.51
80678;BME280;70042;52.494;5.502;2023-07-31T07:17:27;100667.91;;;22.23;62.25
80678;BME280;70042;52.494;5.502;2023-07-31T07:19:53;100668.84;;;22.22;62.50
80678;BME280;70042;52.494;5.502;2023-07-31T07:22:20;100661.72;;;22.23;62.44
80678;BME280;70042;52.494;5.502;2023-07-31T07:24:45;100656.41;;;22.23;62.36
80678;BME280;70042;52.494;5.502;2023-07-31T07:27:11;100666.16;;;22.22;62.43
80678;BME280;70042;52.494;5.502;2023-07-31T07:29:37;100656.41;;;22.23;62.27
80678;BME280;70042;52.494;5.502;2023-07-31T07:32:03;100661.72;;;22.23;62.48
80678;BME280;70042;52.494;5.502;2023-07-31T07:34:29;100661.72;;;22.23;62.39
80678;BME280;70042;52.494;5.502;2023-07-31T07:36:54;100650.16;;;22.24;62.32
80678;BME280;70042;52.494;5.502;2023-07-31T07:39:20;100652.81;;;22.24;62.29
80678;BME280;70042;52.494;5.502;2023-07-31T07:41:46;100658.13;;;22.24;62.31
80678;BME280;70042;52.494;5.502;2023-07-31T07:44:12;100648.41;;;22.23;62.53
80678;BME280;70042;52.494;5.502;2023-07-31T07:46:38;100656.41;;;22.23;62.34
80678;BME280;70042;52.494;5.502;2023-07-31T07:49:04;100644.81;;;22.24;62.52
80678;BME280;70042;52.494;5.502;2023-07-31T07:51:29;100648.34;;;22.24;62.35
80678;BME280;70042;52.494;5.502;2023-07-31T07:53:57;100646.69;;;22.22;62.30
80678;BME280;70042;52.494;5.502;2023-07-31T07:56:24;100645.75;;;22.23;62.40
80678;BME280;70042;52.494;5.502;2023-07-31T07:58:51;100642.31;;;22.21;62.49
80678;BME280;70042;52.494;5.502;2023-07-31T08:01:16;100641.44;;;22.20;62.52
80678;BME280;70042;52.494;5.502;2023-07-31T08:03:42;100629.94;;;22.20;62.52
80678;BME280;70042;52.494;5.502;2023-07-31T08:06:09;100635.25;;;22.20;62.52
80678;BME280;70042;52.494;5.502;2023-07-31T08:08:35;100629.94;;;22.20;62.46
80678;BME280;70042;52.494;5.502;2023-07-31T08:11:01;100633.50;;;22.19;62.46
80678;BME280;70042;52.494;5.502;2023-07-31T08:13:27;100628.19;;;22.19;62.60
80678;BME280;70042;52.494;5.502;2023-07-31T08:15:52;100633.50;;;22.19;62.37
80678;BME280;70042;52.494;5.502;2023-07-31T08:18:18;100638.84;;;22.19;62.44
80678;BME280;70042;52.494;5.502;2023-07-31T08:20:44;100628.19;;;22.19;62.64
80678;BME280;70042;52.494;5.502;2023-07-31T08:23:09;100629.06;;;22.19;62.47
80678;BME280;70042;52.494;5.502;2023-07-31T08:25:35;100620.22;;;22.19;62.56
80678;BME280;70042;52.494;5.502;2023-07-31T08:28:02;100631.66;;;22.21;62.61
80678;BME280;70042;52.494;5.502;2023-07-31T08:30:27;100615.69;;;22.21;62.56
80678;BME280;70042;52.494;5.502;2023-07-31T08:32:53;100615.69;;;22.21;62.70
80678;BME280;70042;52.494;5.502;2023-07-31T08:35:19;100615.56;;;22.24;62.90
80678;BME280;70042;52.494;5.502;2023-07-31T08:37:44;100604.91;;;22.24;62.84
80678;BME280;70042;52.494;5.502;2023-07-31T08:40:10;100607.47;;;22.25;62.81
80678;BME280;70042;52.494;5.502;2023-07-31T08:42:46;100612.75;;;22.27;62.60
80678;BME280;70042;52.494;5.502;2023-07-31T08:45:16;100616.28;;;22.27;62.65
80678;BME280;70042;52.494;5.502;2023-07-31T08:47:45;100612.66;;;22.28;62.71
80678;BME280;70042;52.494;5.502;2023-07-31T08:50:13;100616.19;;;22.29;62.63
80678;BME280;70042;52.494;5.502;2023-07-31T08:52:39;100621.44;;;22.30;62.67
80678;BME280;70042;52.494;5.502;2023-07-31T08:55:05;100617.91;;;22.30;62.65
80678;BME280;70042;52.494;5.502;2023-07-31T08:57:31;100615.25;;;22.30;62.47
80678;BME280;70042;52.494;5.502;2023-07-31T08:59:58;100610.78;;;22.30;62.73
80678;BME280;70042;52.494;5.502;2023-07-31T09:02:35;100614.31;;;22.31;62.66
80678;BME280;70042;52.494;5.502;2023-07-31T09:05:04;100614.31;;;22.31;62.75
80678;BME280;70042;52.494;5.502;2023-07-31T09:07:31;100609.78;;;22.33;62.63
80678;BME280;70042;52.494;5.502;2023-07-31T09:09:59;100618.63;;;22.33;62.75
80678;BME280;70042;52.494;5.502;2023-07-31T09:12:25;100624.81;;;22.34;62.76
80678;BME280;70042;52.494;5.502;2023-07-31T09:14:51;100613.22;;;22.35;62.68
80678;BME280;70042;52.494;5.502;2023-07-31T09:17:28;100612.34;;;22.34;62.65
80678;BME280;70042;52.494;5.502;2023-07-31T09:19:53;100608.75;;;22.36;62.91
80678;BME280;70042;52.494;5.502;2023-07-31T09:22:32;100606.09;;;22.36;62.78
80678;BME280;70042;52.494;5.502;2023-07-31T09:25:14;100606.03;;;22.37;62.71
80678;BME280;70042;52.494;5.502;2023-07-31T09:30:13;100599.03;;;22.34;62.78
80678;BME280;70042;52.494;5.502;2023-07-31T09:32:38;100604.38;;;22.34;62.95
80678;BME280;70042;52.494;5.502;2023-07-31T09:35:14;100600.72;;;22.37;62.86
80678;BME280;70042;52.494;5.502;2023-07-31T09:37:43;100596.25;;;22.38;62.91
80678;BME280;70042;52.494;5.502;2023-07-31T09:40:09;100598.97;;;22.36;62.78
80678;BME280;70042;52.494;5.502;2023-07-31T09:42:49;100590.22;;;22.34;62.71
80678;BME280;70042;52.494;5.502;2023-07-31T09:45:15;100593.81;;;22.33;62.98
80678;BME280;70042;52.494;5.502;2023-07-31T09:47:45;100599.13;;;22.33;62.74
80678;BME280;70042;52.494;5.502;2023-07-31T09:50:12;100592.03;;;22.33;62.93
80678;BME280;70042;52.494;5.502;2023-07-31T09:52:38;100602.72;;;22.32;62.88
80678;BME280;70042;52.494;5.502;2023-07-31T09:55:04;100601.84;;;22.31;62.95
80678;BME280;70042;52.494;5.502;2023-07-31T09:57:30;100601.03;;;22.31;62.86
80678;BME280;70042;52.494;5.502;2023-07-31T09:59:56;100599.19;;;22.31;62.70
80678;BME280;70042;52.494;5.502;2023-07-31T10:02:22;100596.47;;;22.33;63.06
80678;BME280;70042;52.494;5.502;2023-07-31T10:04:51;100592.78;;;22.36;62.88
80678;BME280;70042;52.494;5.502;2023-07-31T10:07:20;100590.22;;;22.34;62.90
80678;BME280;70042;52.494;5.502;2023-07-31T10:09:48;100591.94;;;22.35;63.00
80678;BME280;70042;52.494;5.502;2023-07-31T10:12:16;100595.53;;;22.34;63.04
80678;BME280;70042;52.494;5.502;2023-07-31T10:14:42;100595.53;;;22.34;62.95
80678;BME280;70042;52.494;5.502;2023-07-31T10:17:08;100589.34;;;22.33;63.06
80678;BME280;70042;52.494;5.502;2023-07-31T10:19:35;100587.63;;;22.32;62.87
80678;BME280;70042;52.494;5.502;2023-07-31T10:22:03;100589.41;;;22.32;63.01
80678;BME280;70042;52.494;5.502;2023-07-31T10:24:29;100594.69;;;22.33;63.02
80678;BME280;70042;52.494;5.502;2023-07-31T10:26:58;100591.22;;;22.31;63.33
80678;BME280;70042;52.494;5.502;2023-07-31T10:29:26;100595.53;;;22.34;63.11
80678;BME280;70042;52.494;5.502;2023-07-31T10:31:53;100591.94;;;22.35;63.06
80678;BME280;70042;52.494;5.502;2023-07-31T10:34:21;100585.69;;;22.36;62.88
80678;BME280;70042;52.494;5.502;2023-07-31T10:36:47;100585.53;;;22.39;63.12
80678;BME280;70042;52.494;5.502;2023-07-31T10:42:12;100589.63;;;22.46;62.80
80678;BME280;70042;52.494;5.502;2023-07-31T10:44:44;100586.88;;;22.48;62.86
80678;BME280;70042;52.494;5.502;2023-07-31T10:47:15;100585.06;;;22.48;62.66
80678;BME280;70042;52.494;5.502;2023-07-31T10:49:45;100588.44;;;22.52;62.96
80678;BME280;70042;52.494;5.502;2023-07-31T10:52:13;100581.34;;;22.52;62.64
80678;BME280;70042;52.494;5.502;2023-07-31T10:54:39;100581.38;;;22.51;63.01
80678;BME280;70042;52.494;5.502;2023-07-31T10:57:21;100582.25;;;22.51;62.95
80678;BME280;70042;52.494;5.502;2023-07-31T10:59:48;100587.59;;;22.51;62.94
80678;BME280;70042;52.494;5.502;2023-07-31T11:02:27;100586.00;;;22.47;63.01
80678;BME280;70042;52.494;5.502;2023-07-31T11:05:10;100584.31;;;22.46;63.22
80678;BME280;70042;52.494;5.502;2023-07-31T11:07:49;100587.88;;;22.45;63.22
80678;BME280;70042;52.494;5.502;2023-07-31T11:10:17;100580.81;;;22.44;63.21
80678;BME280;70042;52.494;5.502;2023-07-31T11:12:43;100588.81;;;22.44;63.23
80678;BME280;70042;52.494;5.502;2023-07-31T11:15:10;100588.97;;;22.41;63.33
80678;BME280;70042;52.494;5.502;2023-07-31T11:17:40;100589.91;;;22.40;63.39
80678;BME280;70042;52.494;5.502;2023-07-31T11:20:07;100589.06;;;22.40;63.27
80678;BME280;70042;52.494;5.502;2023-07-31T11:22:35;100586.44;;;22.38;63.36
80678;BME280;70042;52.494;5.502;2023-07-31T11:25:03;100589.06;;;22.40;63.49
80678;BME280;70042;52.494;5.502;2023-07-31T11:27:29;100593.50;;;22.39;63.18
80678;BME280;70042;52.494;5.502;2023-07-31T11:30:00;100586.44;;;22.38;63.76
80678;BME280;70042;52.494;5.502;2023-07-31T11:32:27;100588.19;;;22.39;63.63
80678;BME280;70042;52.494;5.502;2023-07-31T11:34:55;100583.78;;;22.38;63.71
80678;BME280;70042;52.494;5.502;2023-07-31T11:37:21;100590.06;;;22.37;63.84
80678;BME280;70042;52.494;5.502;2023-07-31T11:40:02;100582.09;;;22.37;63.52
80678;BME280;70042;52.494;5.502;2023-07-31T11:42:28;100572.22;;;22.39;63.49
80678;BME280;70042;52.494;5.502;2023-07-31T11:44:54;100573.09;;;22.40;63.62
80678;BME280;70042;52.494;5.502;2023-07-31T11:47:20;100568.63;;;22.40;63.65
80678;BME280;70042;52.494;5.502;2023-07-31T11:49:46;100563.31;;;22.40;63.69
80678;BME280;70042;52.494;5.502;2023-07-31T11:52:12;100565.97;;;22.40;63.52
80678;BME280;70042;52.494;5.502;2023-07-31T11:54:39;100574.72;;;22.42;63.66
80678;BME280;70042;52.494;5.502;2023-07-31T11:57:05;100578.09;;;22.46;63.56
80678;BME280;70042;52.494;5.502;2023-07-31T11:59:32;100564.69;;;22.47;63.57
80678;BME280;70042;52.494;5.502;2023-07-31T12:01:57;100570.75;;;22.51;63.52
80678;BME280;70042;52.494;5.502;2023-07-31T12:04:23;100567.09;;;22.53;63.29
80678;BME280;70042;52.494;5.502;2023-07-31T12:06:49;100581.09;;;22.57;62.99
80678;BME280;70042;52.494;5.502;2023-07-31T12:09:17;100584.63;;;22.57;63.18
80678;BME280;70042;52.494;5.502;2023-07-31T12:11:47;100584.56;;;22.59;63.06
80678;BME280;70042;52.494;5.502;2023-07-31T12:14:26;100576.47;;;22.60;63.29
80678;BME280;70042;52.494;5.502;2023-07-31T12:16:59;100590.59;;;22.62;63.08
80678;BME280;70042;52.494;5.502;2023-07-31T12:19:26;100581.66;;;22.63;62.90
80678;BME280;70042;52.494;5.502;2023-07-31T12:21:55;100586.97;;;22.63;62.80
80678;BME280;70042;52.494;5.502;2023-07-31T12:24:20;100582.50;;;22.65;62.96
80678;BME280;70042;52.494;5.502;2023-07-31T12:26:48;100583.34;;;22.66;62.75
80678;BME280;70042;52.494;5.502;2023-07-31T12:29:14;100586.91;;;22.65;63.07
80678;BME280;70042;52.494;5.502;2023-07-31T12:31:43;100574.84;;;22.58;63.26
80678;BME280;70042;52.494;5.502;2023-07-31T12:34:19;100573.34;;;22.52;63.35
80678;BME280;70042;52.494;5.502;2023-07-31T12:36:46;100563.72;;;22.50;63.68
80678;BME280;70042;52.494;5.502;2023-07-31T12:39:14;100561.09;;;22.48;63.64
80678;BME280;70042;52.494;5.502;2023-07-31T12:41:43;100553.22;;;22.47;63.63
80678;BME280;70042;52.494;5.502;2023-07-31T12:44:09;100559.38;;;22.47;63.64
80678;BME280;70042;52.494;5.502;2023-07-31T12:46:35;100547.03;;;22.46;63.87
80678;BME280;70042;52.494;5.502;2023-07-31T12:49:01;100561.19;;;22.47;63.83
80678;BME280;70042;52.494;5.502;2023-07-31T12:51:27;100557.69;;;22.46;63.78
80678;BME280;70042;52.494;5.502;2023-07-31T12:53:53;100556.72;;;22.47;63.86
80678;BME280;70042;52.494;5.502;2023-07-31T12:56:19;100549.59;;;22.48;63.98
80678;BME280;70042;52.494;5.502;2023-07-31T12:58:44;100546.00;;;22.49;64.07
80678;BME280;70042;52.494;5.502;2023-07-31T13:01:09;100556.44;;;22.53;63.98
80678;BME280;70042;52.494;5.502;2023-07-31T13:03:35;100549.22;;;22.55;63.59